createdAt,value
2023-05-08T00:00:43.467Z,95286.00
2023-05-08T00:01:43.455Z,95282.00
2023-05-08T00:02:43.508Z,95282.00
2023-05-08T00:03:43.596Z,95282.00
2023-05-08T00:04:43.454Z,95280.00
2023-05-08T00:05:43.440Z,95282.00
2023-05-08T00:06:43.434Z,95282.00
2023-05-08T00:07:43.456Z,95282.00
2023-05-08T00:08:43.467Z,95280.00
2023-05-08T00:09:43.436Z,95280.00
2023-05-08T00:10:43.450Z,95284.00
2023-05-08T00:11:43.484Z,95282.00
2023-05-08T00:12:43.609Z,95282.00
2023-05-08T00:13:43.443Z,95286.00
2023-05-08T00:14:43.476Z,95284.00
2023-05-08T00:15:43.466Z,95284.00
2023-05-08T00:16:44.095Z,95282.00
2023-05-08T00:17:43.553Z,95282.00
2023-05-08T00:18:43.506Z,95286.00
2023-05-08T00:19:43.489Z,95284.00
2023-05-08T00:20:43.495Z,95282.00
2023-05-08T00:21:43.488Z,95282.00
2023-05-08T00:22:43.493Z,95282.00
2023-05-08T00:23:43.510Z,95284.00
2023-05-08T00:24:43.476Z,95284.00
2023-05-08T00:25:43.449Z,95282.00
2023-05-08T00:26:43.589Z,95282.00
2023-05-08T00:27:43.459Z,95280.00
2023-05-08T00:28:43.508Z,95278.00
2023-05-08T00:29:43.450Z,95274.00
2023-05-08T00:30:43.463Z,95278.00
2023-05-08T00:31:43.531Z,95276.00
2023-05-08T00:32:43.514Z,95272.00
2023-05-08T00:33:43.491Z,95276.00
2023-05-08T00:34:43.463Z,95274.00
2023-05-08T00:35:43.449Z,95274.00
2023-05-08T00:36:43.491Z,95278.00
2023-05-08T00:37:43.501Z,95278.00
2023-05-08T00:38:43.529Z,95282.00
2023-05-08T00:39:43.497Z,95282.00
2023-05-08T00:40:43.533Z,95284.00
2023-05-08T00:41:43.504Z,95286.00
2023-05-08T00:42:43.521Z,95286.00
2023-05-08T00:43:43.550Z,95288.00
2023-05-08T00:44:43.614Z,95288.00
2023-05-08T00:45:43.563Z,95288.00
2023-05-08T00:46:43.648Z,95292.00
2023-05-08T00:47:43.640Z,95290.00
2023-05-08T00:48:43.578Z,95292.00
2023-05-08T00:49:43.600Z,95293.00
2023-05-08T00:50:43.578Z,95293.00
2023-05-08T00:51:43.595Z,95293.00
2023-05-08T00:52:43.607Z,95295.00
2023-05-08T00:53:43.568Z,95295.00
2023-05-08T00:54:43.569Z,95293.00
2023-05-08T00:55:43.599Z,95297.00
2023-05-08T00:56:43.598Z,95295.00
2023-05-08T00:57:43.575Z,95295.00
2023-05-08T00:58:43.610Z,95297.00
2023-05-08T00:59:43.615Z,95297.00
2023-05-08T01:00:43.616Z,95297.00
2023-05-08T01:01:43.671Z,95299.00
2023-05-08T01:02:43.634Z,95299.00
2023-05-08T01:03:43.766Z,95297.00
2023-05-08T01:04:43.651Z,95301.00
2023-05-08T01:05:43.662Z,95293.00
2023-05-08T01:06:43.674Z,95297.00
2023-05-08T01:07:43.679Z,95293.00
2023-05-08T01:08:43.652Z,95297.00
2023-05-08T01:09:43.640Z,95297.00
2023-05-08T01:10:43.667Z,95297.00
2023-05-08T01:11:44.085Z,95301.00
2023-05-08T01:12:43.729Z,95297.00
2023-05-08T01:13:43.709Z,95299.00
2023-05-08T01:14:43.693Z,95301.00
2023-05-08T01:15:43.805Z,95299.00
2023-05-08T01:16:43.744Z,95303.00
2023-05-08T01:17:43.806Z,95303.00
2023-05-08T01:18:43.736Z,95305.00
2023-05-08T01:19:43.765Z,95305.00
2023-05-08T01:20:43.768Z,95307.00
2023-05-08T01:21:43.785Z,95307.00
2023-05-08T01:22:43.772Z,95303.00
2023-05-08T01:23:43.788Z,95307.00
2023-05-08T01:24:43.796Z,95307.00
2023-05-08T01:25:43.815Z,95309.00
2023-05-08T01:26:43.831Z,95307.00
2023-05-08T01:27:43.825Z,95309.00
2023-05-08T01:28:43.810Z,95309.00
2023-05-08T01:29:43.833Z,95309.00
2023-05-08T01:30:43.903Z,95311.00
2023-05-08T01:31:43.844Z,95311.00
2023-05-08T01:32:43.865Z,95313.00
2023-05-08T01:33:43.915Z,95311.00
2023-05-08T01:34:43.875Z,95311.00
2023-05-08T01:35:43.860Z,95313.00
2023-05-08T01:36:43.866Z,95313.00
2023-05-08T01:37:43.896Z,95313.00
2023-05-08T01:38:43.888Z,95313.00
2023-05-08T01:39:43.900Z,95313.00
2023-05-08T01:40:43.885Z,95311.00
2023-05-08T01:41:43.912Z,95313.00
2023-05-08T01:42:43.906Z,95311.00
2023-05-08T01:43:43.895Z,95315.00
2023-05-08T01:44:43.937Z,95313.00
2023-05-08T01:45:43.951Z,95317.00
2023-05-08T01:46:43.991Z,95313.00
2023-05-08T01:47:44.001Z,95315.00
2023-05-08T01:48:43.989Z,95315.00
2023-05-08T01:49:43.968Z,95317.00
2023-05-08T01:50:43.987Z,95317.00
2023-05-08T01:51:43.994Z,95319.00
2023-05-08T01:52:44.021Z,95319.00
2023-05-08T01:53:43.976Z,95319.00
2023-05-08T01:54:44.018Z,95319.00
2023-05-08T01:55:44.031Z,95321.00
2023-05-08T01:56:44.060Z,95317.00
2023-05-08T01:57:44.046Z,95317.00
2023-05-08T01:58:44.032Z,95317.00
2023-05-08T01:59:44.072Z,95319.00
2023-05-08T02:00:44.113Z,95315.00
2023-05-08T02:01:44.153Z,95315.00
2023-05-08T02:02:44.188Z,95317.00
2023-05-08T02:03:44.225Z,95315.00
2023-05-08T02:04:44.152Z,95315.00
2023-05-08T02:05:44.194Z,95317.00
2023-05-08T02:06:44.194Z,95315.00
2023-05-08T02:07:44.174Z,95313.00
2023-05-08T02:08:44.219Z,95313.00
2023-05-08T02:09:44.222Z,95313.00
2023-05-08T02:10:44.244Z,95309.00
2023-05-08T02:11:44.262Z,95313.00
2023-05-08T02:12:44.302Z,95311.00
2023-05-08T02:13:44.283Z,95313.00
2023-05-08T02:14:44.324Z,95311.00
2023-05-08T02:15:44.299Z,95311.00
2023-05-08T02:16:44.418Z,95311.00
2023-05-08T02:17:44.379Z,95311.00
2023-05-08T02:18:44.305Z,95311.00
2023-05-08T02:19:44.347Z,95313.00
2023-05-08T02:20:44.373Z,95311.00
2023-05-08T02:21:44.369Z,95311.00
2023-05-08T02:22:44.375Z,95313.00
2023-05-08T02:23:44.397Z,95313.00
2023-05-08T02:24:44.392Z,95313.00
2023-05-08T02:25:44.383Z,95311.00
2023-05-08T02:26:44.438Z,95311.00
2023-05-08T02:27:44.455Z,95309.00
2023-05-08T02:28:44.458Z,95307.00
2023-05-08T02:29:44.464Z,95305.00
2023-05-08T02:30:44.471Z,95309.00
2023-05-08T02:31:44.481Z,95307.00
2023-05-08T02:32:44.580Z,95305.00
2023-05-08T02:33:44.491Z,95303.00
2023-05-08T02:34:54.924Z,95303.00
2023-05-08T02:35:45.542Z,95303.00
2023-05-08T02:36:44.506Z,95303.00
2023-05-08T02:37:44.480Z,95303.00
2023-05-08T02:38:44.504Z,95301.00
2023-05-08T02:39:44.450Z,95303.00
2023-05-08T02:40:44.504Z,95305.00
2023-05-08T02:41:44.492Z,95305.00
2023-05-08T02:42:44.453Z,95307.00
2023-05-08T02:43:44.473Z,95307.00
2023-05-08T02:44:44.461Z,95307.00
2023-05-08T02:45:44.463Z,95307.00
2023-05-08T02:46:44.606Z,95309.00
2023-05-08T02:47:44.489Z,95309.00
2023-05-08T02:48:44.425Z,95309.00
2023-05-08T02:49:44.419Z,95311.00
2023-05-08T02:50:44.403Z,95307.00
2023-05-08T02:51:44.417Z,95307.00
2023-05-08T02:52:44.358Z,95309.00
2023-05-08T02:53:44.379Z,95311.00
2023-05-08T02:54:44.402Z,95309.00
2023-05-08T02:55:44.374Z,95307.00
2023-05-08T02:56:44.643Z,95307.00
2023-05-08T02:57:44.342Z,95307.00
2023-05-08T02:58:44.357Z,95307.00
2023-05-08T02:59:44.363Z,95307.00
2023-05-08T03:00:44.315Z,95307.00
2023-05-08T03:01:44.349Z,95307.00
2023-05-08T03:02:44.399Z,95307.00
2023-05-08T03:03:44.417Z,95307.00
2023-05-08T03:04:44.298Z,95305.00
2023-05-08T03:05:44.300Z,95309.00
2023-05-08T03:06:44.311Z,95305.00
2023-05-08T03:07:44.306Z,95305.00
2023-05-08T03:08:44.312Z,95305.00
2023-05-08T03:09:44.380Z,95303.00
2023-05-08T03:10:44.347Z,95303.00
2023-05-08T03:11:44.396Z,95303.00
2023-05-08T03:12:44.440Z,95301.00
2023-05-08T03:13:44.386Z,95301.00
2023-05-08T03:14:44.428Z,95297.00
2023-05-08T03:15:44.490Z,95297.00
2023-05-08T03:16:44.471Z,95299.00
2023-05-08T03:17:44.498Z,95299.00
2023-05-08T03:18:44.495Z,95299.00
2023-05-08T03:19:44.491Z,95301.00
2023-05-08T03:20:44.504Z,95299.00
2023-05-08T03:21:44.619Z,95303.00
2023-05-08T03:22:44.530Z,95301.00
2023-05-08T03:23:44.569Z,95303.00
2023-05-08T03:24:44.589Z,95301.00
2023-05-08T03:25:44.609Z,95301.00
2023-05-08T03:26:44.597Z,95301.00
2023-05-08T03:27:44.595Z,95301.00
2023-05-08T03:28:44.607Z,95301.00
2023-05-08T03:29:44.660Z,95299.00
2023-05-08T03:30:44.676Z,95301.00
2023-05-08T03:31:44.791Z,95301.00
2023-05-08T03:32:44.706Z,95301.00
2023-05-08T03:33:44.702Z,95299.00
2023-05-08T03:34:44.694Z,95301.00
2023-05-08T03:35:44.717Z,95301.00
2023-05-08T03:36:44.765Z,95301.00
2023-05-08T03:37:44.755Z,95303.00
2023-05-08T03:38:44.773Z,95303.00
2023-05-08T03:39:44.825Z,95305.00
2023-05-08T03:40:44.841Z,95307.00
2023-05-08T03:41:45.183Z,95307.00
2023-05-08T03:42:44.868Z,95307.00
2023-05-08T03:43:44.867Z,95307.00
2023-05-08T03:44:44.881Z,95307.00
2023-05-08T03:45:44.941Z,95305.00
2023-05-08T03:46:44.951Z,95309.00
2023-05-08T03:47:44.976Z,95309.00
2023-05-08T03:48:44.940Z,95307.00
2023-05-08T03:49:44.970Z,95311.00
2023-05-08T03:50:45.029Z,95315.00
2023-05-08T03:51:45.091Z,95315.00
2023-05-08T03:52:45.054Z,95315.00
2023-05-08T03:53:45.085Z,95311.00
2023-05-08T03:54:45.065Z,95315.00
2023-05-08T03:55:45.102Z,95315.00
2023-05-08T03:56:45.105Z,95315.00
2023-05-08T03:57:45.114Z,95317.00
2023-05-08T03:58:45.128Z,95317.00
2023-05-08T03:59:45.163Z,95315.00
2023-05-08T04:00:45.195Z,95315.00
2023-05-08T04:01:45.240Z,95317.00
2023-05-08T04:02:45.187Z,95317.00
2023-05-08T04:03:45.252Z,95319.00
2023-05-08T04:04:45.234Z,95319.00
2023-05-08T04:05:45.242Z,95323.00
2023-05-08T04:06:50.141Z,95323.00
2023-05-08T04:07:46.245Z,95323.00
2023-05-08T04:08:45.253Z,95325.00
2023-05-08T04:09:45.258Z,95325.00
2023-05-08T04:10:45.269Z,95327.00
2023-05-08T04:11:45.252Z,95331.00
2023-05-08T04:12:45.237Z,95333.00
2023-05-08T04:13:45.236Z,95329.00
2023-05-08T04:14:45.243Z,95333.00
2023-05-08T04:15:45.195Z,95335.00
2023-05-08T04:16:45.252Z,95335.00
2023-05-08T04:17:45.180Z,95337.00
2023-05-08T04:18:45.162Z,95339.00
2023-05-08T04:19:45.180Z,95339.00
2023-05-08T04:20:46.229Z,95337.00
2023-05-08T04:21:45.185Z,95341.00
2023-05-08T04:22:45.162Z,95341.00
2023-05-08T04:23:45.130Z,95341.00
2023-05-08T04:24:45.098Z,95345.00
2023-05-08T04:25:45.124Z,95343.00
2023-05-08T04:26:45.110Z,95345.00
2023-05-08T04:27:45.168Z,95343.00
2023-05-08T04:28:45.104Z,95345.00
2023-05-08T04:29:45.089Z,95345.00
2023-05-08T04:30:45.077Z,95347.00
2023-05-08T04:31:45.117Z,95347.00
2023-05-08T04:32:46.754Z,95347.00
2023-05-08T04:33:45.187Z,95348.00
2023-05-08T04:34:45.177Z,95348.00
2023-05-08T04:35:45.204Z,95348.00
2023-05-08T04:36:45.211Z,95348.00
2023-05-08T04:37:45.265Z,95350.00
2023-05-08T04:38:45.265Z,95348.00
2023-05-08T04:39:45.262Z,95352.00
2023-05-08T04:40:45.276Z,95352.00
2023-05-08T04:41:45.399Z,95352.00
2023-05-08T04:42:45.328Z,95352.00
2023-05-08T04:43:45.367Z,95354.00
2023-05-08T04:44:45.362Z,95354.00
2023-05-08T04:45:45.455Z,95356.00
2023-05-08T04:46:45.416Z,95358.00
2023-05-08T04:47:45.576Z,95358.00
2023-05-08T04:48:45.474Z,95360.00
2023-05-08T04:49:45.558Z,95360.00
2023-05-08T04:50:45.507Z,95360.00
2023-05-08T04:51:45.561Z,95370.00
2023-05-08T04:52:45.569Z,95368.00
2023-05-08T04:53:45.607Z,95364.00
2023-05-08T04:54:45.624Z,95366.00
2023-05-08T04:55:45.664Z,95366.00
2023-05-08T04:56:45.672Z,95368.00
2023-05-08T04:57:46.151Z,95368.00
2023-05-08T04:58:45.751Z,95368.00
2023-05-08T04:59:45.758Z,95368.00
2023-05-08T05:00:45.782Z,95370.00
2023-05-08T05:01:45.881Z,95366.00
2023-05-08T05:02:45.874Z,95368.00
2023-05-08T05:03:45.915Z,95370.00
2023-05-08T05:04:45.968Z,95372.00
2023-05-08T05:05:46.021Z,95370.00
2023-05-08T05:06:46.062Z,95372.00
2023-05-08T05:07:46.095Z,95374.00
2023-05-08T05:08:46.135Z,95374.00
2023-05-08T05:09:46.153Z,95372.00
2023-05-08T05:10:46.259Z,95374.00
2023-05-08T05:11:46.298Z,95376.00
2023-05-08T05:12:46.762Z,95376.00
2023-05-08T05:13:46.443Z,95378.00
2023-05-08T05:14:46.464Z,95380.00
2023-05-08T05:15:46.646Z,95380.00
2023-05-08T05:16:46.650Z,95380.00
2023-05-08T05:17:46.694Z,95380.00
2023-05-08T05:18:46.712Z,95382.00
2023-05-08T05:19:46.734Z,95382.00
2023-05-08T05:20:46.794Z,95382.00
2023-05-08T05:21:46.896Z,95386.00
2023-05-08T05:22:46.930Z,95392.00
2023-05-08T05:23:46.933Z,95384.00
2023-05-08T05:24:47.034Z,95388.00
2023-05-08T05:25:47.061Z,95388.00
2023-05-08T05:26:47.150Z,95388.00
2023-05-08T05:27:47.161Z,95395.00
2023-05-08T05:28:47.211Z,95392.00
2023-05-08T05:29:47.233Z,95397.00
2023-05-08T05:30:47.294Z,95395.00
2023-05-08T05:31:47.340Z,95392.00
2023-05-08T05:32:47.475Z,95395.00
2023-05-08T05:33:47.458Z,95397.00
2023-05-08T05:34:47.476Z,95399.00
2023-05-08T05:35:47.524Z,95399.00
2023-05-08T05:36:47.572Z,95401.00
2023-05-08T05:37:47.624Z,95401.00
2023-05-08T05:38:47.641Z,95399.00
2023-05-08T05:39:47.714Z,95409.00
2023-05-08T05:40:47.752Z,95401.00
2023-05-08T05:41:47.809Z,95397.00
2023-05-08T05:42:47.878Z,95401.00
2023-05-08T05:43:47.913Z,95409.00
2023-05-08T05:44:47.992Z,95411.00
2023-05-08T05:45:48.091Z,95401.00
2023-05-08T05:46:48.152Z,95411.00
2023-05-08T05:47:48.187Z,95411.00
2023-05-08T05:48:48.230Z,95413.00
2023-05-08T05:49:48.329Z,95415.00
2023-05-08T05:50:48.352Z,95411.00
2023-05-08T05:51:48.420Z,95415.00
2023-05-08T05:52:48.502Z,95415.00
2023-05-08T05:53:48.487Z,95417.00
2023-05-08T05:54:48.942Z,95417.00
2023-05-08T05:55:48.585Z,95417.00
2023-05-08T05:56:48.623Z,95409.00
2023-05-08T05:57:48.697Z,95415.00
2023-05-08T05:58:48.736Z,95417.00
2023-05-08T05:59:48.813Z,95419.00
2023-05-08T06:00:48.836Z,95417.00
2023-05-08T06:01:48.892Z,95417.00
2023-05-08T06:02:49.158Z,95419.00
2023-05-08T06:03:49.074Z,95415.00
2023-05-08T06:04:48.984Z,95417.00
2023-05-08T06:05:49.028Z,95419.00
2023-05-08T06:06:49.115Z,95419.00
2023-05-08T06:07:49.180Z,95421.00
2023-05-08T06:08:49.218Z,95423.00
2023-05-08T06:09:49.311Z,95423.00
2023-05-08T06:10:49.315Z,95423.00
2023-05-08T06:11:49.374Z,95425.00
2023-05-08T06:12:49.471Z,95421.00
2023-05-08T06:13:50.713Z,95425.00
2023-05-08T06:14:49.567Z,95425.00
2023-05-08T06:15:49.608Z,95423.00
2023-05-08T06:16:49.680Z,95425.00
2023-05-08T06:17:49.739Z,95425.00
2023-05-08T06:18:49.782Z,95423.00
2023-05-08T06:19:49.834Z,95425.00
2023-05-08T06:20:49.871Z,95427.00
2023-05-08T06:21:49.950Z,95427.00
2023-05-08T06:22:50.175Z,95427.00
2023-05-08T06:23:50.067Z,95429.00
2023-05-08T06:24:50.139Z,95431.00
2023-05-08T06:25:50.217Z,95429.00
2023-05-08T06:26:50.224Z,95431.00
2023-05-08T06:27:50.332Z,95431.00
2023-05-08T06:28:50.343Z,95431.00
2023-05-08T06:29:50.411Z,95431.00
2023-05-08T06:30:50.474Z,95433.00
2023-05-08T06:31:50.516Z,95433.00
2023-05-08T06:32:50.746Z,95433.00
2023-05-08T06:33:50.635Z,95429.00
2023-05-08T06:34:50.683Z,95431.00
2023-05-08T06:35:50.739Z,95435.00
2023-05-08T06:36:50.819Z,95435.00
2023-05-08T06:37:51.234Z,95431.00
2023-05-08T06:38:50.900Z,95431.00
2023-05-08T06:40:00.330Z,95433.00
2023-05-08T06:40:51.938Z,95433.00
2023-05-08T06:41:50.916Z,95433.00
2023-05-08T06:42:51.357Z,95433.00
2023-05-08T06:43:50.893Z,95435.00
2023-05-08T06:44:50.894Z,95435.00
2023-05-08T06:45:50.976Z,95437.00
2023-05-08T06:46:51.030Z,95439.00
2023-05-08T06:47:50.913Z,95439.00
2023-05-08T06:48:50.902Z,95435.00
2023-05-08T06:49:50.880Z,95435.00
2023-05-08T06:50:50.884Z,95435.00
2023-05-08T06:51:50.958Z,95433.00
2023-05-08T06:52:50.986Z,95429.00
2023-05-08T06:53:51.088Z,95435.00
2023-05-08T06:54:51.104Z,95439.00
2023-05-08T06:55:51.202Z,95439.00
2023-05-08T06:56:51.238Z,95439.00
2023-05-08T06:57:51.716Z,95441.00
2023-05-08T06:59:04.550Z,95441.00
2023-05-08T06:59:52.310Z,95441.00
2023-05-08T07:00:51.255Z,95439.00
2023-05-08T07:01:51.256Z,95441.00
2023-05-08T07:02:51.788Z,95439.00
2023-05-08T07:03:51.212Z,95441.00
2023-05-08T07:04:51.228Z,95441.00
2023-05-08T07:05:51.208Z,95443.00
2023-05-08T07:06:51.197Z,95441.00
2023-05-08T07:07:51.243Z,95443.00
2023-05-08T07:08:51.198Z,95441.00
2023-05-08T07:09:52.239Z,95445.00
2023-05-08T07:10:51.264Z,95445.00
2023-05-08T07:11:51.186Z,95443.00
2023-05-08T07:12:51.235Z,95443.00
2023-05-08T07:13:51.178Z,95441.00
2023-05-08T07:14:51.206Z,95443.00
2023-05-08T07:15:51.222Z,95443.00
2023-05-08T07:16:51.210Z,95447.00
2023-05-08T07:17:51.273Z,95445.00
2023-05-08T07:18:51.213Z,95445.00
2023-05-08T07:19:51.201Z,95448.00
2023-05-08T07:20:51.152Z,95448.00
2023-05-08T07:21:51.173Z,95450.00
2023-05-08T07:22:51.244Z,95447.00
2023-05-08T07:23:51.155Z,95447.00
2023-05-08T07:24:51.197Z,95448.00
2023-05-08T07:25:51.263Z,95450.00
2023-05-08T07:26:51.325Z,95448.00
2023-05-08T07:27:51.402Z,95448.00
2023-05-08T07:28:51.330Z,95447.00
2023-05-08T07:29:51.321Z,95452.00
2023-05-08T07:30:51.337Z,95454.00
2023-05-08T07:31:51.566Z,95454.00
2023-05-08T07:32:51.510Z,95454.00
2023-05-08T07:33:51.405Z,95452.00
2023-05-08T07:34:51.434Z,95450.00
2023-05-08T07:35:51.431Z,95448.00
2023-05-08T07:36:51.473Z,95447.00
2023-05-08T07:37:51.469Z,95448.00
2023-05-08T07:38:51.496Z,95447.00
2023-05-08T07:39:51.494Z,95447.00
2023-05-08T07:40:51.556Z,95447.00
2023-05-08T07:41:51.658Z,95447.00
2023-05-08T07:42:51.691Z,95447.00
2023-05-08T07:43:51.679Z,95445.00
2023-05-08T07:44:54.797Z,95447.00
2023-05-08T07:45:51.730Z,95448.00
2023-05-08T07:46:51.755Z,95445.00
2023-05-08T07:47:51.744Z,95447.00
2023-05-08T07:48:51.727Z,95447.00
2023-05-08T07:49:51.738Z,95439.00
2023-05-08T07:50:51.660Z,95448.00
2023-05-08T07:51:51.677Z,95454.00
2023-05-08T07:52:51.671Z,95447.00
2023-05-08T07:53:51.634Z,95448.00
2023-05-08T07:54:51.658Z,95450.00
2023-05-08T07:55:51.631Z,95450.00
2023-05-08T07:56:51.670Z,95450.00
2023-05-08T07:57:51.627Z,95452.00
2023-05-08T07:58:51.622Z,95447.00
2023-05-08T07:59:51.639Z,95447.00
2023-05-08T08:00:51.630Z,95452.00
2023-05-08T08:01:51.664Z,95448.00
2023-05-08T08:02:51.848Z,95450.00
2023-05-08T08:03:51.685Z,95450.00
2023-05-08T08:04:51.561Z,95450.00
2023-05-08T08:05:51.575Z,95448.00
2023-05-08T08:06:51.562Z,95448.00
2023-05-08T08:07:51.585Z,95450.00
2023-05-08T08:08:51.553Z,95448.00
2023-05-08T08:09:51.529Z,95448.00
2023-05-08T08:10:52.235Z,95448.00
2023-05-08T08:11:51.575Z,95450.00
2023-05-08T08:12:51.824Z,95450.00
2023-05-08T08:13:51.483Z,95450.00
2023-05-08T08:14:51.492Z,95452.00
2023-05-08T08:15:51.550Z,95454.00
2023-05-08T08:16:51.556Z,95452.00
2023-05-08T08:17:51.796Z,95452.00
2023-05-08T08:18:51.580Z,95456.00
2023-05-08T08:19:51.489Z,95452.00
2023-05-08T08:20:51.436Z,95452.00
2023-05-08T08:21:51.511Z,95456.00
2023-05-08T08:22:51.743Z,95454.00
2023-05-08T08:23:51.451Z,95454.00
2023-05-08T08:24:54.075Z,95454.00
2023-05-08T08:25:51.468Z,95450.00
2023-05-08T08:26:51.465Z,95452.00
2023-05-08T08:27:51.464Z,95452.00
2023-05-08T08:28:51.429Z,95450.00
2023-05-08T08:29:58.508Z,95452.00
2023-05-08T08:30:52.473Z,95452.00
2023-05-08T08:31:51.387Z,95450.00
2023-05-08T08:32:51.406Z,95450.00
2023-05-08T08:33:51.370Z,95456.00
2023-05-08T08:34:51.475Z,95456.00
2023-05-08T08:35:51.359Z,95462.00
2023-05-08T08:36:51.348Z,95460.00
2023-05-08T08:37:51.362Z,95454.00
2023-05-08T08:38:51.364Z,95460.00
2023-05-08T08:39:51.300Z,95464.00
2023-05-08T08:40:51.356Z,95466.00
2023-05-08T08:41:51.313Z,95464.00
2023-05-08T08:42:51.334Z,95460.00
2023-05-08T08:43:51.298Z,95462.00
2023-05-08T08:44:51.296Z,95462.00
2023-05-08T08:45:51.351Z,95462.00
2023-05-08T08:46:51.386Z,95456.00
2023-05-08T08:47:51.317Z,95454.00
2023-05-08T08:48:51.272Z,95454.00
2023-05-08T08:49:51.263Z,95468.00
2023-05-08T08:50:51.333Z,95454.00
2023-05-08T08:51:51.211Z,95458.00
2023-05-08T08:52:51.228Z,95452.00
2023-05-08T08:53:51.230Z,95450.00
2023-05-08T08:54:51.253Z,95454.00
2023-05-08T08:55:51.210Z,95448.00
2023-05-08T08:56:51.247Z,95448.00
2023-05-08T08:57:51.188Z,95447.00
2023-05-08T08:58:51.162Z,95445.00
2023-05-08T08:59:51.198Z,95452.00
2023-05-08T09:00:51.204Z,95450.00
2023-05-08T09:01:51.255Z,95450.00
2023-05-08T09:02:51.436Z,95450.00
2023-05-08T09:03:51.395Z,95448.00
2023-05-08T09:04:51.285Z,95450.00
2023-05-08T09:05:51.280Z,95450.00
2023-05-08T09:06:51.485Z,95447.00
2023-05-08T09:07:51.426Z,95448.00
2023-05-08T09:08:51.438Z,95450.00
2023-05-08T09:09:51.501Z,95450.00
2023-05-08T09:10:51.490Z,95450.00
2023-05-08T09:11:51.520Z,95450.00
2023-05-08T09:12:51.590Z,95448.00
2023-05-08T09:13:51.556Z,95448.00
2023-05-08T09:14:51.597Z,95448.00
2023-05-08T09:15:51.615Z,95450.00
2023-05-08T09:16:51.653Z,95450.00
2023-05-08T09:17:51.672Z,95450.00
2023-05-08T09:18:51.689Z,95450.00
2023-05-08T09:19:51.728Z,95452.00
2023-05-08T09:20:51.703Z,95448.00
2023-05-08T09:21:51.715Z,95445.00
2023-05-08T09:22:51.829Z,95443.00
2023-05-08T09:23:51.757Z,95445.00
2023-05-08T09:24:51.754Z,95445.00
2023-05-08T09:25:51.794Z,95441.00
2023-05-08T09:26:51.804Z,95443.00
2023-05-08T09:27:52.238Z,95441.00
2023-05-08T09:28:51.830Z,95443.00
2023-05-08T09:29:51.834Z,95445.00
2023-05-08T09:30:51.852Z,95443.00
2023-05-08T09:31:51.919Z,95445.00
2023-05-08T09:32:51.949Z,95443.00
2023-05-08T09:33:51.895Z,95443.00
2023-05-08T09:34:51.872Z,95447.00
2023-05-08T09:35:51.857Z,95447.00
2023-05-08T09:36:51.895Z,95443.00
2023-05-08T09:37:51.900Z,95448.00
2023-05-08T09:38:51.986Z,95445.00
2023-05-08T09:39:51.918Z,95447.00
2023-05-08T09:40:51.922Z,95445.00
2023-05-08T09:41:51.922Z,95445.00
2023-05-08T09:42:51.921Z,95445.00
2023-05-08T09:43:52.275Z,95447.00
2023-05-08T09:44:52.051Z,95447.00
2023-05-08T09:45:52.124Z,95448.00
2023-05-08T09:46:52.048Z,95448.00
2023-05-08T09:47:52.136Z,95448.00
2023-05-08T09:48:52.169Z,95450.00
2023-05-08T09:49:52.189Z,95445.00
2023-05-08T09:50:52.242Z,95447.00
2023-05-08T09:51:52.327Z,95448.00
2023-05-08T09:52:52.395Z,95445.00
2023-05-08T09:53:52.766Z,95448.00
2023-05-08T09:54:52.470Z,95448.00
2023-05-08T09:55:52.435Z,95447.00
2023-05-08T09:56:52.456Z,95445.00
2023-05-08T09:57:52.550Z,95445.00
2023-05-08T09:58:52.569Z,95450.00
2023-05-08T09:59:52.605Z,95448.00
2023-05-08T10:00:52.682Z,95450.00
2023-05-08T10:01:52.590Z,95448.00
2023-05-08T10:02:52.646Z,95448.00
2023-05-08T10:03:52.813Z,95448.00
2023-05-08T10:04:52.659Z,95450.00
2023-05-08T10:05:52.617Z,95448.00
2023-05-08T10:06:54.037Z,95447.00
2023-05-08T10:07:52.631Z,95447.00
2023-05-08T10:08:52.633Z,95447.00
2023-05-08T10:09:52.653Z,95447.00
2023-05-08T10:10:52.702Z,95443.00
2023-05-08T10:11:52.581Z,95441.00
2023-05-08T10:12:52.607Z,95445.00
2023-05-08T10:13:52.599Z,95441.00
2023-05-08T10:14:59.558Z,95441.00
2023-05-08T10:15:52.576Z,95439.00
2023-05-08T10:16:52.642Z,95441.00
2023-05-08T10:17:52.596Z,95441.00
2023-05-08T10:18:52.574Z,95435.00
2023-05-08T10:19:52.537Z,95437.00
2023-05-08T10:20:52.550Z,95435.00
2023-05-08T10:21:52.518Z,95433.00
2023-05-08T10:22:52.518Z,95435.00
2023-05-08T10:23:52.509Z,95435.00
2023-05-08T10:24:52.526Z,95437.00
2023-05-08T10:25:54.797Z,95433.00
2023-05-08T10:27:05.689Z,95435.00
2023-05-08T10:27:53.609Z,95431.00
2023-05-08T10:28:52.572Z,95431.00
2023-05-08T10:29:52.646Z,95433.00
2023-05-08T10:30:53.578Z,95429.00
2023-05-08T10:31:52.575Z,95431.00
2023-05-08T10:32:52.576Z,95429.00
2023-05-08T10:33:52.558Z,95427.00
2023-05-08T10:34:52.536Z,95425.00
2023-05-08T10:35:52.524Z,95425.00
2023-05-08T10:36:54.220Z,95425.00
2023-05-08T10:37:52.521Z,95423.00
2023-05-08T10:38:52.791Z,95421.00
2023-05-08T10:39:52.575Z,95419.00
2023-05-08T10:40:52.589Z,95419.00
2023-05-08T10:41:52.621Z,95419.00
2023-05-08T10:42:52.813Z,95413.00
2023-05-08T10:43:52.768Z,95415.00
2023-05-08T10:44:52.783Z,95415.00
2023-05-08T10:45:52.877Z,95415.00
2023-05-08T10:46:52.865Z,95417.00
2023-05-08T10:47:52.995Z,95413.00
2023-05-08T10:48:52.936Z,95411.00
2023-05-08T10:49:52.971Z,95411.00
2023-05-08T10:50:53.012Z,95411.00
2023-05-08T10:51:53.022Z,95411.00
2023-05-08T10:52:53.034Z,95409.00
2023-05-08T10:53:53.291Z,95409.00
2023-05-08T10:54:53.040Z,95401.00
2023-05-08T10:55:53.060Z,95399.00
2023-05-08T10:56:53.062Z,95397.00
2023-05-08T10:57:53.045Z,95397.00
2023-05-08T10:58:53.068Z,95394.00
2023-05-08T10:59:53.158Z,95395.00
2023-05-08T11:00:53.168Z,95394.00
2023-05-08T11:01:53.350Z,95394.00
2023-05-08T11:02:53.294Z,95392.00
2023-05-08T11:03:53.398Z,95392.00
2023-05-08T11:04:53.257Z,95392.00
2023-05-08T11:05:53.265Z,95390.00
2023-05-08T11:06:53.347Z,95392.00
2023-05-08T11:07:53.316Z,95386.00
2023-05-08T11:08:53.345Z,95386.00
2023-05-08T11:09:53.366Z,95386.00
2023-05-08T11:10:53.370Z,95386.00
2023-05-08T11:11:53.370Z,95388.00
2023-05-08T11:12:53.493Z,95386.00
2023-05-08T11:13:53.490Z,95384.00
2023-05-08T11:14:53.485Z,95382.00
2023-05-08T11:15:53.531Z,95382.00
2023-05-08T11:16:53.505Z,95382.00
2023-05-08T11:17:53.542Z,95378.00
2023-05-08T11:18:53.823Z,95378.00
2023-05-08T11:19:53.633Z,95378.00
2023-05-08T11:20:53.617Z,95374.00
2023-05-08T11:21:53.632Z,95374.00
2023-05-08T11:22:53.693Z,95372.00
2023-05-08T11:23:53.795Z,95372.00
2023-05-08T11:24:53.729Z,95368.00
2023-05-08T11:25:53.811Z,95372.00
2023-05-08T11:26:53.804Z,95366.00
2023-05-08T11:27:53.830Z,95370.00
2023-05-08T11:28:54.336Z,95362.00
2023-05-08T11:29:53.903Z,95366.00
2023-05-08T11:30:53.948Z,95366.00
2023-05-08T11:31:54.027Z,95364.00
2023-05-08T11:32:54.048Z,95364.00
2023-05-08T11:33:54.067Z,95362.00
2023-05-08T11:34:54.071Z,95362.00
2023-05-08T11:35:54.172Z,95364.00
2023-05-08T11:36:54.176Z,95362.00
2023-05-08T11:37:54.228Z,95358.00
2023-05-08T11:38:56.307Z,95360.00
2023-05-08T11:39:54.306Z,95362.00
2023-05-08T11:40:54.428Z,95354.00
2023-05-08T11:41:54.360Z,95358.00
2023-05-08T11:42:54.408Z,95358.00
2023-05-08T11:43:54.454Z,95356.00
2023-05-08T11:44:54.498Z,95358.00